Time;durP1;ratioP1;P1;durP2;ratioP2;P2;SDS_P1;SDS_P2;PMS_P1;PMS_P2;Temp;Humidity;BMP_temperature;BMP_pressure;BME280_temperature;BME280_humidity;BME280_pressure;Samples;Min_cycle;Max_cycle;Signal;HPM_P1;HPM_P2
2022/10/30 00:00:59;;;;;;;114.63;49.15;;;;;;;;;;5107409;28;20044;-79
2022/10/30 00:03:45;;;;;;;98.70;43.55;;;;;;;;;;5107113;28;20044;-81
2022/10/30 00:06:30;;;;;;;106.05;46.47;;;;;;;;;;5107368;28;20032;-81
2022/10/30 00:09:16;;;;;;;123.90;50.63;;;;;;;;;;5106777;28;20040;-81
2022/10/30 00:12:02;;;;;;;103.10;43.45;;;;;;;;;;5100954;28;20451;-80
2022/10/30 00:14:47;;;;;;;81.78;38.40;;;;;;;;;;5100590;28;20032;-79
2022/10/30 00:17:33;;;;;;;79.47;36.65;;;;;;;;;;5107998;28;20044;-79
2022/10/30 00:20:18;;;;;;;73.45;33.25;;;;;;;;;;5106959;28;20044;-78
2022/10/30 00:23:04;;;;;;;63.72;30.40;;;;;;;;;;5107147;28;20040;-79
2022/10/30 00:25:50;;;;;;;83.72;39.17;;;;;;;;;;5107188;28;20398;-79
2022/10/30 00:28:35;;;;;;;68.78;35.10;;;;;;;;;;5100348;28;20043;-79
2022/10/30 00:31:22;;;;;;;52.30;26.85;;;;;;;;;;5105841;28;20478;-81
2022/10/30 00:34:08;;;;;;;55.65;28.00;;;;;;;;;;5100403;28;20039;-80
2022/10/30 00:36:54;;;;;;;51.10;25.75;;;;;;;;;;5107084;28;20044;-81
2022/10/30 00:39:39;;;;;;;48.38;25.30;;;;;;;;;;5100330;28;20043;-81
2022/10/30 00:42:30;;;;;;;48.80;26.00;;;;;;;;;;5106421;28;20040;-79
2022/10/30 00:45:16;;;;;;;53.13;26.23;;;;;;;;;;5106670;28;20036;-79
2022/10/30 00:48:03;;;;;;;49.83;26.52;;;;;;;;;;5100296;28;20044;-79
2022/10/30 00:50:48;;;;;;;45.47;20.33;;;;;;;;;;5100384;28;20044;-78
2022/10/30 00:53:34;;;;;;;39.35;21.30;;;;;;;;;;5100107;28;20040;-81
2022/10/30 00:56:21;;;;;;;31.00;17.70;;;;;;;;;;5099844;28;20036;-81
2022/10/30 00:59:10;;;;;;;29.98;17.55;;;;;;;;;;5106421;28;20036;-81
2022/10/30 01:01:56;;;;;;;30.35;16.50;;;;;;;;;;5100110;28;20044;-81
2022/10/30 01:04:43;;;;;;;27.50;16.05;;;;;;;;;;5107248;28;20036;-80
2022/10/30 01:07:28;;;;;;;21.92;13.93;;;;;;;;;;5106031;28;20055;-80
2022/10/30 01:10:15;;;;;;;26.35;14.77;;;;;;;;;;5102866;28;20062;-80
2022/10/30 01:13:03;;;;;;;22.38;13.18;;;;;;;;;;5096920;28;20044;-80
2022/10/30 01:15:59;;;;;;;21.75;12.88;;;;;;;;;;5102775;28;20052;-81
2022/10/30 01:19:00;;;;;;;19.42;11.38;;;;;;;;;;5098216;28;20040;-81
2022/10/30 01:21:48;;;;;;;18.00;11.30;;;;;;;;;;5104696;28;20066;-81
2022/10/30 01:25:03;;;;;;;19.13;10.80;;;;;;;;;;5098847;28;20047;-84
2022/10/30 01:28:14;;;;;;;22.98;10.57;;;;;;;;;;5102560;28;20423;-82
2022/10/30 01:31:08;;;;;;;31.77;16.70;;;;;;;;;;5102292;28;20040;-80
2022/10/30 01:34:06;;;;;;;44.33;24.25;;;;;;;;;;5103168;28;20044;-81
2022/10/30 01:37:02;;;;;;;32.20;19.02;;;;;;;;;;5102232;28;20463;-81
2022/10/30 01:39:47;;;;;;;47.45;25.30;;;;;;;;;;5102248;28;20036;-80
2022/10/30 01:42:51;;;;;;;50.22;26.52;;;;;;;;;;5097362;28;20044;-81
2022/10/30 01:45:47;;;;;;;47.67;25.65;;;;;;;;;;5101788;28;20040;-81
2022/10/30 01:48:57;;;;;;;53.53;28.85;;;;;;;;;;5101359;28;20044;-80
2022/10/30 01:51:49;;;;;;;59.67;28.35;;;;;;;;;;5095178;28;20044;-81
2022/10/30 01:55:02;;;;;;;62.58;30.70;;;;;;;;;;5095970;28;20048;-80
2022/10/30 01:57:57;;;;;;;58.95;29.98;;;;;;;;;;5101551;28;20415;-81
2022/10/30 02:00:47;;;;;;;60.28;30.83;;;;;;;;;;5095899;28;20048;-81
2022/10/30 02:03:32;;;;;;;58.42;29.42;;;;;;;;;;5101349;28;20047;-80
2022/10/30 02:06:18;;;;;;;57.70;30.63;;;;;;;;;;5101764;28;20043;-80
2022/10/30 02:09:06;;;;;;;58.55;30.85;;;;;;;;;;5102372;28;20039;-81
2022/10/30 02:11:52;;;;;;;61.78;30.27;;;;;;;;;;5095404;28;20040;-80
2022/10/30 02:14:46;;;;;;;56.25;28.98;;;;;;;;;;5101730;28;20040;-81
2022/10/30 02:17:31;;;;;;;61.78;29.33;;;;;;;;;;5100952;28;20044;-80
2022/10/30 02:20:18;;;;;;;57.08;27.83;;;;;;;;;;5100895;28;20047;-82
2022/10/30 02:23:04;;;;;;;50.15;26.23;;;;;;;;;;5095089;28;20051;-80
2022/10/30 02:25:51;;;;;;;52.80;25.50;;;;;;;;;;5102488;28;20044;-81
2022/10/30 02:28:36;;;;;;;51.17;26.35;;;;;;;;;;5101365;28;20044;-81
2022/10/30 02:31:21;;;;;;;52.05;25.02;;;;;;;;;;5094981;28;20036;-80
2022/10/30 02:34:06;;;;;;;46.33;23.00;;;;;;;;;;5101412;28;20470;-81
2022/10/30 02:36:52;;;;;;;34.90;19.08;;;;;;;;;;5100679;28;20040;-81
2022/10/30 02:39:38;;;;;;;36.13;17.20;;;;;;;;;;5100677;28;20036;-80
2022/10/30 02:42:24;;;;;;;30.48;16.50;;;;;;;;;;5101152;28;20036;-81
2022/10/30 02:45:10;;;;;;;25.38;13.55;;;;;;;;;;5100562;28;20040;-80
2022/10/30 02:47:59;;;;;;;21.58;11.82;;;;;;;;;;5100835;28;20040;-81
2022/10/30 02:50:43;;;;;;;23.88;12.98;;;;;;;;;;5096145;28;20387;-80
2022/10/30 02:53:29;;;;;;;22.80;12.98;;;;;;;;;;5101675;28;20044;-80
2022/10/30 02:56:14;;;;;;;24.85;12.73;;;;;;;;;;5100735;28;20040;-80
2022/10/30 02:59:01;;;;;;;55.83;27.42;;;;;;;;;;5100066;28;20355;-81
2022/10/30 03:01:47;;;;;;;63.35;29.75;;;;;;;;;;5100497;28;20043;-82
2022/10/30 03:04:33;;;;;;;44.25;22.38;;;;;;;;;;5100165;28;20039;-80
2022/10/30 03:07:18;;;;;;;113.15;52.22;;;;;;;;;;5101317;28;20043;-82
2022/10/30 03:10:03;;;;;;;73.80;37.17;;;;;;;;;;5094722;28;20032;-81
2022/10/30 03:12:49;;;;;;;66.65;32.20;;;;;;;;;;5100008;28;20547;-81
2022/10/30 03:15:34;;;;;;;48.80;25.20;;;;;;;;;;5094487;28;20044;-81
2022/10/30 03:18:20;;;;;;;63.42;33.55;;;;;;;;;;5093956;28;20043;-81
2022/10/30 03:21:08;;;;;;;89.75;43.88;;;;;;;;;;5094351;28;20044;-80
2022/10/30 03:23:53;;;;;;;107.53;53.55;;;;;;;;;;5094101;28;20454;-81
2022/10/30 03:26:39;;;;;;;126.05;56.92;;;;;;;;;;5099491;28;20043;-81
2022/10/30 03:29:27;;;;;;;73.55;35.88;;;;;;;;;;5100377;28;20474;-80
2022/10/30 03:32:12;;;;;;;51.88;26.10;;;;;;;;;;5099262;28;20044;-81
2022/10/30 03:35:09;;;;;;;55.50;29.35;;;;;;;;;;5100555;28;20056;-82
2022/10/30 03:37:54;;;;;;;63.05;30.30;;;;;;;;;;5099867;28;20036;-80
2022/10/30 03:40:40;;;;;;;54.10;25.05;;;;;;;;;;5099552;28;20462;-82
2022/10/30 03:43:26;;;;;;;41.83;20.83;;;;;;;;;;5099916;28;20044;-79
2022/10/30 03:46:12;;;;;;;36.53;19.95;;;;;;;;;;5099232;28;20040;-81
2022/10/30 03:48:57;;;;;;;46.25;21.95;;;;;;;;;;5100020;28;20040;-80
2022/10/30 03:51:42;;;;;;;40.67;20.80;;;;;;;;;;5095496;28;20044;-80
2022/10/30 03:54:28;;;;;;;42.47;21.23;;;;;;;;;;5099574;28;20036;-80
2022/10/30 03:57:14;;;;;;;45.13;21.25;;;;;;;;;;5100670;28;20467;-80
2022/10/30 04:00:13;;;;;;;41.33;20.98;;;;;;;;;;5099618;28;20032;-79
2022/10/30 04:03:13;;;;;;;41.10;19.35;;;;;;;;;;5099666;28;20379;-81
2022/10/30 04:06:00;;;;;;;38.10;18.20;;;;;;;;;;5099723;28;20043;-80
2022/10/30 04:08:47;;;;;;;29.15;16.27;;;;;;;;;;5099479;28;20044;-81
2022/10/30 04:11:32;;;;;;;165.35;69.10;;;;;;;;;;5099578;28;20043;-81
2022/10/30 04:14:18;;;;;;;52.92;26.20;;;;;;;;;;5099575;28;20044;-81
2022/10/30 04:17:05;;;;;;;45.83;22.48;;;;;;;;;;5099493;28;20040;-82
2022/10/30 04:19:50;;;;;;;50.58;24.10;;;;;;;;;;5099337;28;20044;-80
2022/10/30 04:22:35;;;;;;;48.05;21.98;;;;;;;;;;5099019;28;20035;-80
2022/10/30 04:25:21;;;;;;;49.47;23.38;;;;;;;;;;5099428;28;20040;-81
2022/10/30 04:28:09;;;;;;;37.42;21.25;;;;;;;;;;5100105;28;20386;-80
2022/10/30 04:30:56;;;;;;;43.88;22.73;;;;;;;;;;5100413;28;20044;-81
2022/10/30 04:33:44;;;;;;;44.13;22.77;;;;;;;;;;5099722;28;20039;-81
2022/10/30 04:36:29;;;;;;;46.72;22.80;;;;;;;;;;5099262;28;20036;-81
2022/10/30 04:39:14;;;;;;;38.25;19.73;;;;;;;;;;5099149;28;20406;-80
2022/10/30 04:42:01;;;;;;;46.97;23.00;;;;;;;;;;5099425;28;20501;-81
2022/10/30 04:44:51;;;;;;;41.75;22.17;;;;;;;;;;5101274;28;20401;-80
2022/10/30 04:47:36;;;;;;;46.17;22.88;;;;;;;;;;5103157;28;20040;-81
2022/10/30 04:50:23;;;;;;;48.35;21.95;;;;;;;;;;5099498;28;20047;-80
2022/10/30 04:53:14;;;;;;;45.30;22.80;;;;;;;;;;5103090;28;20040;-80
2022/10/30 04:56:00;;;;;;;38.80;20.35;;;;;;;;;;5102735;28;20043;-80
2022/10/30 04:58:47;;;;;;;45.05;21.98;;;;;;;;;;5103758;28;20048;-81
2022/10/30 05:01:32;;;;;;;46.10;19.48;;;;;;;;;;5102740;28;20032;-80
2022/10/30 05:04:18;;;;;;;36.00;20.27;;;;;;;;;;5085923;28;20040;-79
2022/10/30 05:07:05;;;;;;;33.95;17.50;;;;;;;;;;5062149;28;20037;-79
2022/10/30 05:09:51;;;;;;;29.30;17.05;;;;;;;;;;5063211;28;20049;-79
2022/10/30 05:12:36;;;;;;;25.17;17.33;;;;;;;;;;5062313;28;20049;-79
2022/10/30 05:15:22;;;;;;;27.65;16.42;;;;;;;;;;5063916;28;20037;-80
2022/10/30 05:18:09;;;;;;;31.25;18.25;;;;;;;;;;5075723;28;20388;-80
2022/10/30 05:20:54;;;;;;;25.33;17.10;;;;;;;;;;5056432;28;20037;-80
2022/10/30 05:23:41;;;;;;;27.67;17.13;;;;;;;;;;5062383;28;20045;-81
2022/10/30 05:26:27;;;;;;;31.45;18.58;;;;;;;;;;5081491;28;20040;-82
2022/10/30 05:29:12;;;;;;;34.33;18.80;;;;;;;;;;5082080;28;20467;-82
2022/10/30 05:31:57;;;;;;;39.05;22.90;;;;;;;;;;5081474;28;20044;-82
2022/10/30 05:34:56;;;;;;;49.75;29.42;;;;;;;;;;5082492;28;20380;-80
2022/10/30 05:37:41;;;;;;;36.58;22.17;;;;;;;;;;5081543;28;20040;-82
2022/10/30 05:40:27;;;;;;;35.47;21.98;;;;;;;;;;5081476;28;20037;-81
2022/10/30 05:43:12;;;;;;;35.17;22.27;;;;;;;;;;5075493;28;20044;-81
2022/10/30 05:45:58;;;;;;;37.50;22.45;;;;;;;;;;5081048;28;20044;-81
2022/10/30 05:48:43;;;;;;;31.95;20.63;;;;;;;;;;5081634;28;20494;-81
2022/10/30 05:51:28;;;;;;;30.20;18.73;;;;;;;;;;5076093;28;20040;-82
2022/10/30 05:54:19;;;;;;;35.05;19.58;;;;;;;;;;5081279;28;20036;-81
2022/10/30 05:57:23;;;;;;;28.50;16.75;;;;;;;;;;5070875;28;20048;-81
2022/10/30 06:00:10;;;;;;;29.10;16.17;;;;;;;;;;5081111;28;20036;-81
2022/10/30 06:03:01;;;;;;;25.40;15.18;;;;;;;;;;5074450;28;20048;-80
2022/10/30 06:05:47;;;;;;;28.02;15.07;;;;;;;;;;5080963;28;20049;-80
2022/10/30 06:08:33;;;;;;;23.88;15.15;;;;;;;;;;5081196;28;20049;-81
2022/10/30 06:11:22;;;;;;;26.23;16.90;;;;;;;;;;5081151;28;20040;-80
2022/10/30 06:14:12;;;;;;;38.30;19.58;;;;;;;;;;5074951;28;20463;-80
2022/10/30 06:17:09;;;;;;;27.83;17.17;;;;;;;;;;5080913;28;20387;-81
2022/10/30 06:20:29;;;;;;;29.67;17.23;;;;;;;;;;5075151;28;20089;-80
2022/10/30 06:23:32;;;;;;;52.42;25.27;;;;;;;;;;5079880;28;20040;-80
2022/10/30 06:26:36;;;;;;;41.13;21.70;;;;;;;;;;5072446;28;20049;-81
2022/10/30 06:29:27;;;;;;;36.20;23.08;;;;;;;;;;5060369;28;20487;-80
2022/10/30 06:32:13;;;;;;;22.50;14.32;;;;;;;;;;5046702;28;20037;-79
2022/10/30 06:35:01;;;;;;;21.77;14.55;;;;;;;;;;5060175;28;20048;-80
2022/10/30 06:37:50;;;;;;;19.13;13.65;;;;;;;;;;5069299;28;20040;-80
2022/10/30 06:40:35;;;;;;;23.08;13.77;;;;;;;;;;5081014;28;20472;-81
2022/10/30 06:43:26;;;;;;;18.35;12.68;;;;;;;;;;5074166;28;20036;-80
2022/10/30 06:46:15;;;;;;;16.98;12.35;;;;;;;;;;5080074;28;20036;-79
2022/10/30 06:49:02;;;;;;;20.95;13.45;;;;;;;;;;5079474;28;20467;-80
2022/10/30 06:51:49;;;;;;;20.80;13.27;;;;;;;;;;5079099;28;20053;-80
2022/10/30 06:54:34;;;;;;;20.20;13.88;;;;;;;;;;5076047;28;20044;-79
2022/10/30 06:57:20;;;;;;;21.27;13.88;;;;;;;;;;5077342;28;20383;-80
2022/10/30 07:00:28;;;;;;;20.65;12.93;;;;;;;;;;5076155;28;20024;-79
2022/10/30 07:03:39;;;;;;;18.50;12.15;;;;;;;;;;5078622;28;20040;-81
2022/10/30 07:06:24;;;;;;;19.80;12.57;;;;;;;;;;5079818;28;20041;-82
2022/10/30 07:09:10;;;;;;;17.42;11.82;;;;;;;;;;5079551;28;20049;-78
2022/10/30 07:11:56;;;;;;;17.90;12.23;;;;;;;;;;5060096;28;20045;-80
2022/10/30 07:15:03;;;;;;;19.25;12.35;;;;;;;;;;5060730;28;20048;-79
2022/10/30 07:18:09;;;;;;;21.20;13.00;;;;;;;;;;5053688;28;20037;-81
2022/10/30 07:20:55;;;;;;;20.58;13.00;;;;;;;;;;5060694;28;20053;-80
2022/10/30 07:23:41;;;;;;;20.50;13.45;;;;;;;;;;5078781;28;20044;-79
2022/10/30 07:26:48;;;;;;;20.73;13.98;;;;;;;;;;5079738;28;20463;-80
2022/10/30 07:29:59;;;;;;;23.70;14.05;;;;;;;;;;5098845;28;20044;-80
2022/10/30 07:33:02;;;;;;;19.08;14.38;;;;;;;;;;5071824;28;20032;-80
2022/10/30 07:36:07;;;;;;;22.65;13.55;;;;;;;;;;5073460;28;20052;-79
2022/10/30 07:39:04;;;;;;;22.77;13.07;;;;;;;;;;5098952;28;20069;-79
2022/10/30 07:41:54;;;;;;;21.90;14.40;;;;;;;;;;5099791;28;20410;-79
2022/10/30 07:44:58;;;;;;;22.17;14.95;;;;;;;;;;5053471;28;20407;-79
2022/10/30 07:47:51;;;;;;;22.80;15.55;;;;;;;;;;5059649;28;20049;-80
2022/10/30 07:50:43;;;;;;;23.73;15.65;;;;;;;;;;5055233;28;20049;-79
2022/10/30 07:53:28;;;;;;;24.80;15.05;;;;;;;;;;5069710;28;20052;-80
2022/10/30 07:56:15;;;;;;;20.77;15.32;;;;;;;;;;5078902;28;20048;-79
2022/10/30 07:59:28;;;;;;;23.33;13.70;;;;;;;;;;5079889;28;20044;-80
2022/10/30 08:02:33;;;;;;;26.93;15.37;;;;;;;;;;5079132;28;20040;-79
2022/10/30 08:05:41;;;;;;;29.00;15.55;;;;;;;;;;5076907;28;20736;-79
2022/10/30 08:08:29;;;;;;;23.92;14.48;;;;;;;;;;5078425;28;20048;-78
2022/10/30 08:11:25;;;;;;;21.35;14.25;;;;;;;;;;5079343;28;20040;-78
2022/10/30 08:14:12;;;;;;;25.13;15.00;;;;;;;;;;5078887;28;20040;-76
2022/10/30 08:16:58;;;;;;;27.42;15.43;;;;;;;;;;5089408;28;20036;-77
2022/10/30 08:19:43;;;;;;;21.83;14.57;;;;;;;;;;5102379;28;20455;-78
2022/10/30 08:22:30;;;;;;;25.77;15.00;;;;;;;;;;5101532;28;20036;-77
2022/10/30 08:25:23;;;;;;;20.65;13.57;;;;;;;;;;5103991;28;20047;-76
2022/10/30 08:28:10;;;;;;;26.30;14.32;;;;;;;;;;5088625;28;20044;-77
2022/10/30 08:30:57;;;;;;;24.98;14.02;;;;;;;;;;5082750;28;20471;-79
2022/10/30 08:34:00;;;;;;;25.10;14.57;;;;;;;;;;5082755;28;20040;-79
2022/10/30 08:37:06;;;;;;;23.42;14.75;;;;;;;;;;5095992;28;20471;-78
2022/10/30 08:39:53;;;;;;;21.80;15.15;;;;;;;;;;5096984;28;20371;-78
2022/10/30 08:42:54;;;;;;;21.95;15.02;;;;;;;;;;5103063;28;20040;-79
2022/10/30 08:45:41;;;;;;;25.13;15.10;;;;;;;;;;5103429;28;20051;-79
2022/10/30 08:48:30;;;;;;;25.15;15.25;;;;;;;;;;5102930;28;20044;-79
2022/10/30 08:51:16;;;;;;;27.27;15.30;;;;;;;;;;5098516;28;20044;-77
2022/10/30 08:54:03;;;;;;;27.80;15.05;;;;;;;;;;5102770;28;20374;-79
2022/10/30 08:56:49;;;;;;;33.40;18.00;;;;;;;;;;5101917;28;20044;-77
2022/10/30 08:59:34;;;;;;;25.75;15.85;;;;;;;;;;5080555;28;20467;-78
2022/10/30 09:02:20;;;;;;;24.17;14.00;;;;;;;;;;5075900;28;20388;-79
2022/10/30 09:05:28;;;;;;;22.70;14.82;;;;;;;;;;5066579;28;20044;-78
2022/10/30 09:08:32;;;;;;;27.92;17.20;;;;;;;;;;5075473;28;20379;-79
2022/10/30 09:11:38;;;;;;;30.50;18.08;;;;;;;;;;5080788;28;20032;-79
2022/10/30 09:14:24;;;;;;;29.98;16.75;;;;;;;;;;5081900;28;20044;-78
2022/10/30 09:17:09;;;;;;;23.08;14.45;;;;;;;;;;5081433;28;20482;-79
2022/10/30 09:19:55;;;;;;;26.02;14.70;;;;;;;;;;5081923;28;20040;-77
2022/10/30 09:22:53;;;;;;;25.17;16.67;;;;;;;;;;5081469;28;20364;-79
2022/10/30 09:25:38;;;;;;;24.95;17.02;;;;;;;;;;5082138;28;20045;-79
2022/10/30 09:28:35;;;;;;;24.02;15.23;;;;;;;;;;5081559;28;20045;-79
2022/10/30 09:31:50;;;;;;;22.27;13.60;;;;;;;;;;5074674;28;20041;-80
2022/10/30 09:34:39;;;;;;;78.50;54.90;;;;;;;;;;5081808;28;20269;-78
2022/10/30 09:37:36;;;;;;;32.10;15.70;;;;;;;;;;5081829;28;20044;-79
2022/10/30 09:40:43;;;;;;;28.75;15.18;;;;;;;;;;5082525;28;20040;-78
2022/10/30 09:44:05;;;;;;;23.35;14.88;;;;;;;;;;5082070;28;20376;-81
2022/10/30 09:46:59;;;;;;;21.05;12.25;;;;;;;;;;5081730;28;20048;-79
2022/10/30 09:50:10;;;;;;;21.33;12.23;;;;;;;;;;5080365;28;20450;-79
2022/10/30 09:53:19;;;;;;;20.40;12.25;;;;;;;;;;5081368;28;20041;-79
2022/10/30 09:56:11;;;;;;;19.63;10.82;;;;;;;;;;5081209;28;20036;-79
2022/10/30 09:59:19;;;;;;;18.73;11.60;;;;;;;;;;5083487;28;20387;-78
2022/10/30 10:02:24;;;;;;;21.58;11.40;;;;;;;;;;5083028;28;20032;-77
2022/10/30 10:05:22;;;;;;;19.00;12.50;;;;;;;;;;5076883;28;20383;-78
2022/10/30 10:08:43;;;;;;;17.20;10.63;;;;;;;;;;5083793;28;20044;-79
2022/10/30 10:11:56;;;;;;;19.83;11.73;;;;;;;;;;5077621;28;20475;-79
2022/10/30 10:14:46;;;;;;;20.70;12.32;;;;;;;;;;5077024;28;20045;-80
2022/10/30 10:17:40;;;;;;;19.25;12.48;;;;;;;;;;5075746;28;20033;-79
2022/10/30 10:20:39;;;;;;;24.52;12.88;;;;;;;;;;5079537;28;20037;-77
2022/10/30 10:23:38;;;;;;;23.80;13.40;;;;;;;;;;5079933;28;20032;-79
2022/10/30 10:26:26;;;;;;;26.15;15.10;;;;;;;;;;5079783;28;20048;-79
2022/10/30 10:29:26;;;;;;;33.83;11.60;;;;;;;;;;5080376;28;20471;-78
2022/10/30 10:32:27;;;;;;;21.80;10.38;;;;;;;;;;5080204;28;20044;-77
2022/10/30 10:35:22;;;;;;;18.77;10.13;;;;;;;;;;5074042;28;20048;-80
2022/10/30 10:38:24;;;;;;;22.80;10.80;;;;;;;;;;5074071;28;20037;-79
2022/10/30 10:41:38;;;;;;;19.80;11.07;;;;;;;;;;5073815;28;20044;-80
2022/10/30 10:44:31;;;;;;;17.10;9.50;;;;;;;;;;5081719;28;20044;-80
2022/10/30 10:47:41;;;;;;;21.10;12.18;;;;;;;;;;5080964;28;20040;-78
2022/10/30 10:50:37;;;;;;;23.23;12.27;;;;;;;;;;5077901;28;20044;-80
2022/10/30 10:53:56;;;;;;;32.42;17.15;;;;;;;;;;5074727;28;20048;-79
2022/10/30 10:56:45;;;;;;;21.95;12.52;;;;;;;;;;5081123;28;20480;-80
2022/10/30 10:59:37;;;;;;;21.27;11.32;;;;;;;;;;5080151;28;20045;-80
2022/10/30 11:02:36;;;;;;;21.55;11.02;;;;;;;;;;5073837;28;20029;-78
2022/10/30 11:05:47;;;;;;;19.13;11.50;;;;;;;;;;5081129;28;20463;-80
2022/10/30 11:08:34;;;;;;;22.70;11.70;;;;;;;;;;5080804;28;20395;-78
2022/10/30 11:11:20;;;;;;;26.52;13.40;;;;;;;;;;5081046;28;20036;-79
2022/10/30 11:14:18;;;;;;;22.33;11.55;;;;;;;;;;5080885;28;20040;-79
2022/10/30 11:17:20;;;;;;;18.58;11.27;;;;;;;;;;5080896;28;20387;-80
2022/10/30 11:20:22;;;;;;;18.52;11.65;;;;;;;;;;5080563;28;20468;-78
2022/10/30 11:23:29;;;;;;;26.60;12.63;;;;;;;;;;5080488;28;20036;-79
2022/10/30 11:26:18;;;;;;;18.17;10.43;;;;;;;;;;5080892;28;20040;-78
2022/10/30 11:29:05;;;;;;;18.17;10.18;;;;;;;;;;5073822;28;20036;-79
2022/10/30 11:32:02;;;;;;;21.17;10.57;;;;;;;;;;5073920;28;20040;-80
2022/10/30 11:34:59;;;;;;;18.70;11.07;;;;;;;;;;5073955;28;20447;-79
2022/10/30 11:37:48;;;;;;;24.25;10.43;;;;;;;;;;5074207;28;20040;-80
2022/10/30 11:40:34;;;;;;;20.30;11.82;;;;;;;;;;5080149;28;20037;-78
2022/10/30 11:43:22;;;;;;;19.73;11.23;;;;;;;;;;5073324;28;20040;-79
2022/10/30 11:46:10;;;;;;;20.40;11.82;;;;;;;;;;5080714;28;20052;-79
2022/10/30 11:48:55;;;;;;;25.08;13.43;;;;;;;;;;5073628;28;20044;-79
2022/10/30 11:51:46;;;;;;;18.40;10.35;;;;;;;;;;5074116;28;20044;-80
2022/10/30 11:54:38;;;;;;;21.98;11.35;;;;;;;;;;5073424;28;20032;-78
2022/10/30 11:57:47;;;;;;;18.92;11.65;;;;;;;;;;5079845;28;20048;-79
2022/10/30 12:00:35;;;;;;;22.77;12.23;;;;;;;;;;5073184;28;20049;-79
2022/10/30 12:03:38;;;;;;;19.33;10.32;;;;;;;;;;5079585;28;20045;-80
2022/10/30 12:06:24;;;;;;;32.78;12.10;;;;;;;;;;5080305;28;20044;-78
2022/10/30 12:09:11;;;;;;;22.63;12.10;;;;;;;;;;5080538;28;20044;-79
2022/10/30 12:11:57;;;;;;;21.80;11.25;;;;;;;;;;5078905;28;20467;-78
2022/10/30 12:14:42;;;;;;;24.55;12.05;;;;;;;;;;5080503;28;20036;-78
2022/10/30 12:17:28;;;;;;;25.55;13.50;;;;;;;;;;5073106;28;20032;-80
2022/10/30 12:20:14;;;;;;;17.42;10.07;;;;;;;;;;5073798;28;20403;-78
2022/10/30 12:23:15;;;;;;;21.25;9.43;;;;;;;;;;5080135;28;20045;-79
2022/10/30 12:26:08;;;;;;;17.20;9.40;;;;;;;;;;5079532;28;20387;-79
2022/10/30 12:28:58;;;;;;;19.23;8.80;;;;;;;;;;5073333;28;20052;-77
2022/10/30 12:31:57;;;;;;;16.60;8.73;;;;;;;;;;5079764;28;20040;-78
2022/10/30 12:34:56;;;;;;;30.98;14.93;;;;;;;;;;5076670;28;20033;-78
2022/10/30 12:37:42;;;;;;;23.77;12.05;;;;;;;;;;5076571;28;20032;-79
2022/10/30 12:40:37;;;;;;;19.77;11.38;;;;;;;;;;5066225;28;20037;-77
2022/10/30 12:43:26;;;;;;;15.68;8.48;;;;;;;;;;5078185;28;20048;-77
2022/10/30 12:46:17;;;;;;;14.93;9.35;;;;;;;;;;5077814;28;20033;-77
2022/10/30 12:49:24;;;;;;;19.75;8.52;;;;;;;;;;5079811;28;20044;-79
2022/10/30 12:52:24;;;;;;;15.93;8.30;;;;;;;;;;5071540;28;20041;-78
2022/10/30 12:55:24;;;;;;;16.33;8.93;;;;;;;;;;5079486;28;20045;-78
2022/10/30 12:58:22;;;;;;;15.98;7.63;;;;;;;;;;5079430;28;20044;-79
2022/10/30 13:01:25;;;;;;;14.02;8.18;;;;;;;;;;5079025;28;20036;-80
2022/10/30 13:04:27;;;;;;;15.50;7.57;;;;;;;;;;5079380;28;20399;-78
2022/10/30 13:07:37;;;;;;;14.80;8.40;;;;;;;;;;5094040;28;20044;-78
2022/10/30 13:10:40;;;;;;;19.40;8.63;;;;;;;;;;5084170;28;20048;-78
2022/10/30 13:13:36;;;;;;;14.70;7.53;;;;;;;;;;5086481;28;20478;-79
2022/10/30 13:16:25;;;;;;;18.83;8.05;;;;;;;;;;5082626;28;20048;-78
2022/10/30 13:19:12;;;;;;;13.75;7.35;;;;;;;;;;5086168;28;20044;-78
2022/10/30 13:22:04;;;;;;;15.75;7.57;;;;;;;;;;5081540;28;20383;-78
2022/10/30 13:25:17;;;;;;;18.33;8.52;;;;;;;;;;5082948;28;20045;-77
2022/10/30 13:28:12;;;;;;;15.57;8.43;;;;;;;;;;5064975;28;20036;-79
2022/10/30 13:31:02;;;;;;;17.77;8.95;;;;;;;;;;5064798;28;20048;-79
2022/10/30 13:34:05;;;;;;;15.93;8.70;;;;;;;;;;5074977;28;20053;-78
2022/10/30 13:37:51;;;;;;;16.85;9.95;;;;;;;;;;5064549;28;20045;-80
2022/10/30 13:40:44;;;;;;;24.08;10.77;;;;;;;;;;5036316;28;20041;-79
2022/10/30 13:43:43;;;;;;;17.37;10.37;;;;;;;;;;5037196;28;20033;-78
2022/10/30 13:46:37;;;;;;;21.52;10.57;;;;;;;;;;5078677;28;20036;-78
2022/10/30 13:49:48;;;;;;;19.10;8.45;;;;;;;;;;5069892;28;20068;-78
2022/10/30 13:52:36;;;;;;;18.75;7.53;;;;;;;;;;5079200;28;20382;-79
2022/10/30 13:55:30;;;;;;;16.63;7.82;;;;;;;;;;5080156;28;20048;-78
2022/10/30 13:58:23;;;;;;;19.75;8.02;;;;;;;;;;5073779;28;20036;-78
2022/10/30 14:01:21;;;;;;;14.27;8.18;;;;;;;;;;5079175;28;20456;-78
2022/10/30 14:04:39;;;;;;;23.70;12.05;;;;;;;;;;5077029;28;20053;-80
2022/10/30 14:07:45;;;;;;;29.30;15.20;;;;;;;;;;5062449;28;20037;-80
2022/10/30 14:10:51;;;;;;;27.90;15.35;;;;;;;;;;5077608;28;20044;-80
2022/10/30 14:13:54;;;;;;;26.30;12.63;;;;;;;;;;5072117;28;20036;-79
2022/10/30 14:16:42;;;;;;;20.27;9.73;;;;;;;;;;5080139;28;20048;-80
2022/10/30 14:19:27;;;;;;;26.63;11.40;;;;;;;;;;5079131;28;20044;-79
2022/10/30 14:22:24;;;;;;;28.38;13.25;;;;;;;;;;5071457;28;20045;-78
2022/10/30 14:25:14;;;;;;;24.30;12.38;;;;;;;;;;5088302;28;20040;-79
2022/10/30 14:27:59;;;;;;;23.20;12.45;;;;;;;;;;5096013;28;20040;-79
2022/10/30 14:30:45;;;;;;;22.33;10.77;;;;;;;;;;5100939;28;20048;-79
2022/10/30 14:33:33;;;;;;;21.20;11.85;;;;;;;;;;5098591;28;20044;-78
2022/10/30 14:36:24;;;;;;;22.08;11.07;;;;;;;;;;5077764;28;20040;-80
2022/10/30 14:39:10;;;;;;;20.88;11.68;;;;;;;;;;5077306;28;20044;-79
2022/10/30 14:42:04;;;;;;;20.17;12.02;;;;;;;;;;5094971;28;20032;-78
2022/10/30 14:45:26;;;;;;;23.70;14.13;;;;;;;;;;5101660;28;20383;-79
2022/10/30 14:48:29;;;;;;;23.95;13.15;;;;;;;;;;5101753;28;20043;-78
2022/10/30 14:51:42;;;;;;;24.65;13.40;;;;;;;;;;5087463;28;20040;-78
2022/10/30 14:54:39;;;;;;;27.20;14.50;;;;;;;;;;5090091;28;20052;-79
2022/10/30 14:57:53;;;;;;;28.67;17.52;;;;;;;;;;5074223;28;20041;-79
2022/10/30 15:00:41;;;;;;;36.80;20.90;;;;;;;;;;5074259;28;20036;-79
2022/10/30 15:03:53;;;;;;;35.75;20.15;;;;;;;;;;5080933;28;20041;-80
2022/10/30 15:06:38;;;;;;;34.38;18.30;;;;;;;;;;5080584;28;20387;-80
2022/10/30 15:09:35;;;;;;;36.63;19.65;;;;;;;;;;5075377;28;20048;-79
2022/10/30 15:12:40;;;;;;;28.90;15.10;;;;;;;;;;5073904;28;20040;-79
2022/10/30 15:15:26;;;;;;;30.70;13.20;;;;;;;;;;5080870;28;20036;-80
2022/10/30 15:18:18;;;;;;;38.15;16.27;;;;;;;;;;5080931;28;20044;-80
2022/10/30 15:21:05;;;;;;;29.65;18.55;;;;;;;;;;5073857;28;20048;-80
2022/10/30 15:23:54;;;;;;;160.00;79.47;;;;;;;;;;5079708;28;20040;-79
2022/10/30 15:26:41;;;;;;;176.90;91.03;;;;;;;;;;5053380;28;20036;-79
2022/10/30 15:29:30;;;;;;;203.02;103.45;;;;;;;;;;5087170;28;20036;-79
2022/10/30 15:32:18;;;;;;;244.68;127.80;;;;;;;;;;5093721;28;20040;-79
2022/10/30 15:35:14;;;;;;;221.27;102.80;;;;;;;;;;5083849;28;20466;-78
2022/10/30 15:38:06;;;;;;;197.38;90.85;;;;;;;;;;5095780;28;20032;-79
2022/10/30 15:40:57;;;;;;;179.32;74.85;;;;;;;;;;5080071;28;20044;-79
2022/10/30 15:43:43;;;;;;;166.07;70.03;;;;;;;;;;5080399;28;20052;-79
2022/10/30 15:46:29;;;;;;;154.60;67.63;;;;;;;;;;5080438;28;20403;-78
2022/10/30 15:49:28;;;;;;;151.70;63.78;;;;;;;;;;5079965;28;20040;-79
2022/10/30 15:52:21;;;;;;;125.65;53.45;;;;;;;;;;5081462;28;20046;-78
2022/10/30 15:55:12;;;;;;;148.05;63.55;;;;;;;;;;5079982;28;20040;-77
2022/10/30 15:58:02;;;;;;;131.98;60.67;;;;;;;;;;5070371;28;20402;-80
2022/10/30 16:00:56;;;;;;;157.02;67.65;;;;;;;;;;5084950;28;20088;-79
2022/10/30 16:03:52;;;;;;;166.07;80.65;;;;;;;;;;5097515;28;20052;-78
2022/10/30 16:06:37;;;;;;;158.50;73.88;;;;;;;;;;5079085;28;20040;-79
2022/10/30 16:09:24;;;;;;;269.67;157.48;;;;;;;;;;5079844;28;20390;-80
2022/10/30 16:12:09;;;;;;;251.60;134.35;;;;;;;;;;5073348;28;20037;-78
2022/10/30 16:14:56;;;;;;;244.05;136.23;;;;;;;;;;5077372;28;20044;-77
2022/10/30 16:17:42;;;;;;;151.80;77.38;;;;;;;;;;5078296;28;20028;-77
2022/10/30 16:20:27;;;;;;;113.95;49.47;;;;;;;;;;5078312;28;20036;-77
2022/10/30 16:23:13;;;;;;;93.53;41.20;;;;;;;;;;5086188;28;20462;-79
2022/10/30 16:25:58;;;;;;;103.35;46.58;;;;;;;;;;5100325;28;20371;-79
2022/10/30 16:28:46;;;;;;;133.98;55.33;;;;;;;;;;5100231;28;20044;-78
2022/10/30 16:31:34;;;;;;;135.95;57.78;;;;;;;;;;5100154;28;20462;-80
2022/10/30 16:34:35;;;;;;;145.93;65.07;;;;;;;;;;5099794;28;20044;-79
2022/10/30 16:37:34;;;;;;;151.90;67.63;;;;;;;;;;5099663;28;20043;-79
2022/10/30 16:40:29;;;;;;;160.57;73.40;;;;;;;;;;5084922;28;20044;-80
2022/10/30 16:43:30;;;;;;;162.52;72.72;;;;;;;;;;5097046;28;20040;-80